sensor_id;sensor_type;location;lat;lon;timestamp;P1;durP1;ratioP1;P2;durP2;ratioP2
28170;SDS011;15458;53.346;-1.688;2022-10-16T00:01:19;9.82;;;1.27;;
28170;SDS011;15458;53.346;-1.688;2022-10-16T00:03:46;7.47;;;0.95;;
28170;SDS011;15458;53.346;-1.688;2022-10-16T00:06:12;11.85;;;1.45;;
28170;SDS011;15458;53.346;-1.688;2022-10-16T00:08:39;10.88;;;1.00;;
28170;SDS011;15458;53.346;-1.688;2022-10-16T00:11:20;10.32;;;1.17;;
28170;SDS011;15458;53.346;-1.688;2022-10-16T00:13:48;6.93;;;1.00;;
28170;SDS011;15458;53.346;-1.688;2022-10-16T00:16:15;7.47;;;1.40;;
28170;SDS011;15458;53.346;-1.688;2022-10-16T00:18:41;12.70;;;1.40;;
28170;SDS011;15458;53.346;-1.688;2022-10-16T00:21:08;12.48;;;1.88;;
28170;SDS011;15458;53.346;-1.688;2022-10-16T00:23:42;6.78;;;1.35;;
28170;SDS011;15458;53.346;-1.688;2022-10-16T00:26:09;16.58;;;1.27;;
28170;SDS011;15458;53.346;-1.688;2022-10-16T00:28:37;7.75;;;1.10;;
28170;SDS011;15458;53.346;-1.688;2022-10-16T00:31:04;11.63;;;1.30;;
28170;SDS011;15458;53.346;-1.688;2022-10-16T00:33:35;11.98;;;1.85;;
28170;SDS011;15458;53.346;-1.688;2022-10-16T00:36:02;14.02;;;1.83;;
28170;SDS011;15458;53.346;-1.688;2022-10-16T00:38:29;11.07;;;1.27;;
28170;SDS011;15458;53.346;-1.688;2022-10-16T00:40:56;13.32;;;1.30;;
28170;SDS011;15458;53.346;-1.688;2022-10-16T00:48:55;12.25;;;1.80;;
28170;SDS011;15458;53.346;-1.688;2022-10-16T00:51:30;6.68;;;1.02;;
28170;SDS011;15458;53.346;-1.688;2022-10-16T00:53:58;7.05;;;1.45;;
28170;SDS011;15458;53.346;-1.688;2022-10-16T00:56:26;12.40;;;1.52;;
28170;SDS011;15458;53.346;-1.688;2022-10-16T00:58:51;17.58;;;2.00;;
28170;SDS011;15458;53.346;-1.688;2022-10-16T01:01:17;12.65;;;2.30;;
28170;SDS011;15458;53.346;-1.688;2022-10-16T01:03:43;8.63;;;1.75;;
28170;SDS011;15458;53.346;-1.688;2022-10-16T01:06:17;6.63;;;1.38;;
28170;SDS011;15458;53.346;-1.688;2022-10-16T01:11:34;10.73;;;1.40;;
28170;SDS011;15458;53.346;-1.688;2022-10-16T01:14:27;13.50;;;1.77;;
28170;SDS011;15458;53.346;-1.688;2022-10-16T01:17:11;7.63;;;1.50;;
28170;SDS011;15458;53.346;-1.688;2022-10-16T01:22:21;14.77;;;1.92;;
28170;SDS011;15458;53.346;-1.688;2022-10-16T01:24:51;8.32;;;1.25;;
28170;SDS011;15458;53.346;-1.688;2022-10-16T01:29:54;10.73;;;1.55;;
28170;SDS011;15458;53.346;-1.688;2022-10-16T01:32:33;8.77;;;1.20;;
28170;SDS011;15458;53.346;-1.688;2022-10-16T01:35:07;4.28;;;1.13;;
28170;SDS011;15458;53.346;-1.688;2022-10-16T01:40:19;7.90;;;1.20;;
28170;SDS011;15458;53.346;-1.688;2022-10-16T01:42:50;7.85;;;1.58;;
28170;SDS011;15458;53.346;-1.688;2022-10-16T01:45:25;3.80;;;0.70;;
28170;SDS011;15458;53.346;-1.688;2022-10-16T01:47:53;3.90;;;0.50;;
28170;SDS011;15458;53.346;-1.688;2022-10-16T01:50:20;4.20;;;0.70;;
28170;SDS011;15458;53.346;-1.688;2022-10-16T01:52:47;5.38;;;0.80;;
28170;SDS011;15458;53.346;-1.688;2022-10-16T01:55:24;7.75;;;1.63;;
28170;SDS011;15458;53.346;-1.688;2022-10-16T01:57:54;8.32;;;0.98;;
28170;SDS011;15458;53.346;-1.688;2022-10-16T02:00:21;7.60;;;1.10;;
28170;SDS011;15458;53.346;-1.688;2022-10-16T02:02:49;7.38;;;1.02;;
28170;SDS011;15458;53.346;-1.688;2022-10-16T02:05:20;10.80;;;1.48;;
28170;SDS011;15458;53.346;-1.688;2022-10-16T02:07:51;7.18;;;1.02;;
28170;SDS011;15458;53.346;-1.688;2022-10-16T02:10:17;5.72;;;1.08;;
28170;SDS011;15458;53.346;-1.688;2022-10-16T02:12:49;6.60;;;0.77;;
28170;SDS011;15458;53.346;-1.688;2022-10-16T02:15:19;7.80;;;1.30;;
28170;SDS011;15458;53.346;-1.688;2022-10-16T02:17:45;7.82;;;1.67;;
28170;SDS011;15458;53.346;-1.688;2022-10-16T02:20:10;7.20;;;0.73;;
28170;SDS011;15458;53.346;-1.688;2022-10-16T02:22:40;7.70;;;2.00;;
28170;SDS011;15458;53.346;-1.688;2022-10-16T02:25:19;7.53;;;0.90;;
28170;SDS011;15458;53.346;-1.688;2022-10-16T02:27:54;6.30;;;1.65;;
28170;SDS011;15458;53.346;-1.688;2022-10-16T02:30:27;6.38;;;0.93;;
28170;SDS011;15458;53.346;-1.688;2022-10-16T02:32:54;9.93;;;0.98;;
28170;SDS011;15458;53.346;-1.688;2022-10-16T02:35:23;6.85;;;1.42;;
28170;SDS011;15458;53.346;-1.688;2022-10-16T02:37:50;10.63;;;1.05;;
28170;SDS011;15458;53.346;-1.688;2022-10-16T02:40:17;6.60;;;0.80;;
28170;SDS011;15458;53.346;-1.688;2022-10-16T02:42:43;6.40;;;0.88;;
28170;SDS011;15458;53.346;-1.688;2022-10-16T02:45:11;11.05;;;0.93;;
28170;SDS011;15458;53.346;-1.688;2022-10-16T02:47:37;7.22;;;0.82;;
28170;SDS011;15458;53.346;-1.688;2022-10-16T02:50:03;6.95;;;0.98;;
28170;SDS011;15458;53.346;-1.688;2022-10-16T02:52:30;3.42;;;0.70;;
28170;SDS011;15458;53.346;-1.688;2022-10-16T02:54:55;7.10;;;1.30;;
28170;SDS011;15458;53.346;-1.688;2022-10-16T02:57:21;6.30;;;1.02;;
28170;SDS011;15458;53.346;-1.688;2022-10-16T02:59:47;8.18;;;0.98;;
28170;SDS011;15458;53.346;-1.688;2022-10-16T03:02:12;6.03;;;0.70;;
28170;SDS011;15458;53.346;-1.688;2022-10-16T03:04:38;4.28;;;1.35;;
28170;SDS011;15458;53.346;-1.688;2022-10-16T03:07:04;5.82;;;1.08;;
28170;SDS011;15458;53.346;-1.688;2022-10-16T03:09:29;6.03;;;1.33;;
28170;SDS011;15458;53.346;-1.688;2022-10-16T03:11:55;6.15;;;1.05;;
28170;SDS011;15458;53.346;-1.688;2022-10-16T03:14:21;5.32;;;0.95;;
28170;SDS011;15458;53.346;-1.688;2022-10-16T03:16:46;6.35;;;1.20;;
28170;SDS011;15458;53.346;-1.688;2022-10-16T03:19:12;5.95;;;0.95;;
28170;SDS011;15458;53.346;-1.688;2022-10-16T03:21:38;8.10;;;1.02;;
28170;SDS011;15458;53.346;-1.688;2022-10-16T03:24:03;4.57;;;0.73;;
28170;SDS011;15458;53.346;-1.688;2022-10-16T03:26:33;8.15;;;1.20;;
28170;SDS011;15458;53.346;-1.688;2022-10-16T03:28:58;6.03;;;0.90;;
28170;SDS011;15458;53.346;-1.688;2022-10-16T03:31:24;3.88;;;0.80;;
28170;SDS011;15458;53.346;-1.688;2022-10-16T03:33:50;5.78;;;0.90;;
28170;SDS011;15458;53.346;-1.688;2022-10-16T03:36:18;8.40;;;1.10;;
28170;SDS011;15458;53.346;-1.688;2022-10-16T03:38:43;4.97;;;0.88;;
28170;SDS011;15458;53.346;-1.688;2022-10-16T03:41:09;5.63;;;1.13;;
28170;SDS011;15458;53.346;-1.688;2022-10-16T03:43:35;7.00;;;0.82;;
28170;SDS011;15458;53.346;-1.688;2022-10-16T03:46:03;5.80;;;1.65;;
28170;SDS011;15458;53.346;-1.688;2022-10-16T03:48:29;5.60;;;0.80;;
28170;SDS011;15458;53.346;-1.688;2022-10-16T03:50:55;6.25;;;1.05;;
28170;SDS011;15458;53.346;-1.688;2022-10-16T03:53:20;1.90;;;0.65;;
28170;SDS011;15458;53.346;-1.688;2022-10-16T03:55:46;10.32;;;1.17;;
28170;SDS011;15458;53.346;-1.688;2022-10-16T03:58:12;7.20;;;0.88;;
28170;SDS011;15458;53.346;-1.688;2022-10-16T04:00:44;8.65;;;0.75;;
28170;SDS011;15458;53.346;-1.688;2022-10-16T04:03:11;7.75;;;1.20;;
28170;SDS011;15458;53.346;-1.688;2022-10-16T04:05:37;8.15;;;1.00;;
28170;SDS011;15458;53.346;-1.688;2022-10-16T04:08:03;7.70;;;1.45;;
28170;SDS011;15458;53.346;-1.688;2022-10-16T04:10:29;3.97;;;1.30;;
28170;SDS011;15458;53.346;-1.688;2022-10-16T04:12:54;3.80;;;0.85;;
28170;SDS011;15458;53.346;-1.688;2022-10-16T04:15:21;8.07;;;1.15;;
28170;SDS011;15458;53.346;-1.688;2022-10-16T04:17:48;7.15;;;0.93;;
28170;SDS011;15458;53.346;-1.688;2022-10-16T04:20:13;3.92;;;1.08;;
28170;SDS011;15458;53.346;-1.688;2022-10-16T04:22:39;7.72;;;0.95;;
28170;SDS011;15458;53.346;-1.688;2022-10-16T04:25:05;5.53;;;0.77;;
28170;SDS011;15458;53.346;-1.688;2022-10-16T04:27:31;4.55;;;1.35;;
28170;SDS011;15458;53.346;-1.688;2022-10-16T04:29:59;9.38;;;1.15;;
28170;SDS011;15458;53.346;-1.688;2022-10-16T04:32:25;5.25;;;2.22;;
28170;SDS011;15458;53.346;-1.688;2022-10-16T04:34:51;5.00;;;0.77;;
28170;SDS011;15458;53.346;-1.688;2022-10-16T04:37:17;6.22;;;1.00;;
28170;SDS011;15458;53.346;-1.688;2022-10-16T04:39:43;5.53;;;0.73;;
28170;SDS011;15458;53.346;-1.688;2022-10-16T04:42:09;3.17;;;0.80;;
28170;SDS011;15458;53.346;-1.688;2022-10-16T04:44:36;3.10;;;0.75;;
28170;SDS011;15458;53.346;-1.688;2022-10-16T04:47:01;7.80;;;1.73;;
28170;SDS011;15458;53.346;-1.688;2022-10-16T04:49:27;6.13;;;0.80;;
28170;SDS011;15458;53.346;-1.688;2022-10-16T04:51:53;7.93;;;0.93;;
28170;SDS011;15458;53.346;-1.688;2022-10-16T04:54:19;7.07;;;0.88;;
28170;SDS011;15458;53.346;-1.688;2022-10-16T04:56:44;2.83;;;0.52;;
28170;SDS011;15458;53.346;-1.688;2022-10-16T04:59:15;8.20;;;1.50;;
28170;SDS011;15458;53.346;-1.688;2022-10-16T05:01:42;5.88;;;1.85;;
28170;SDS011;15458;53.346;-1.688;2022-10-16T05:04:08;9.77;;;1.33;;
28170;SDS011;15458;53.346;-1.688;2022-10-16T05:06:34;2.55;;;0.90;;
28170;SDS011;15458;53.346;-1.688;2022-10-16T05:08:59;8.63;;;0.90;;
28170;SDS011;15458;53.346;-1.688;2022-10-16T05:11:25;3.88;;;0.82;;
28170;SDS011;15458;53.346;-1.688;2022-10-16T05:13:51;5.50;;;0.68;;
28170;SDS011;15458;53.346;-1.688;2022-10-16T05:16:16;3.38;;;0.80;;
28170;SDS011;15458;53.346;-1.688;2022-10-16T05:18:42;3.38;;;0.88;;
28170;SDS011;15458;53.346;-1.688;2022-10-16T05:21:10;8.88;;;0.73;;
28170;SDS011;15458;53.346;-1.688;2022-10-16T05:23:37;5.03;;;0.93;;
28170;SDS011;15458;53.346;-1.688;2022-10-16T05:26:03;3.47;;;0.80;;
28170;SDS011;15458;53.346;-1.688;2022-10-16T05:28:29;5.80;;;0.75;;
28170;SDS011;15458;53.346;-1.688;2022-10-16T05:30:56;3.92;;;0.60;;
28170;SDS011;15458;53.346;-1.688;2022-10-16T05:33:24;5.65;;;1.00;;
28170;SDS011;15458;53.346;-1.688;2022-10-16T05:35:50;5.75;;;0.82;;
28170;SDS011;15458;53.346;-1.688;2022-10-16T05:38:17;4.43;;;0.77;;
28170;SDS011;15458;53.346;-1.688;2022-10-16T05:40:43;4.32;;;0.95;;
28170;SDS011;15458;53.346;-1.688;2022-10-16T05:43:15;3.33;;;0.63;;
28170;SDS011;15458;53.346;-1.688;2022-10-16T05:45:41;3.55;;;0.63;;
28170;SDS011;15458;53.346;-1.688;2022-10-16T05:48:06;3.10;;;0.73;;
28170;SDS011;15458;53.346;-1.688;2022-10-16T05:50:32;5.43;;;0.77;;
28170;SDS011;15458;53.346;-1.688;2022-10-16T05:53:00;5.03;;;0.77;;
28170;SDS011;15458;53.346;-1.688;2022-10-16T05:55:26;7.18;;;2.15;;
28170;SDS011;15458;53.346;-1.688;2022-10-16T05:57:54;9.45;;;0.80;;
28170;SDS011;15458;53.346;-1.688;2022-10-16T06:00:19;2.45;;;0.50;;
28170;SDS011;15458;53.346;-1.688;2022-10-16T06:02:45;4.25;;;0.50;;
28170;SDS011;15458;53.346;-1.688;2022-10-16T06:05:11;2.15;;;0.50;;
28170;SDS011;15458;53.346;-1.688;2022-10-16T06:07:36;2.78;;;0.77;;
28170;SDS011;15458;53.346;-1.688;2022-10-16T06:10:03;4.97;;;0.82;;
28170;SDS011;15458;53.346;-1.688;2022-10-16T06:12:29;1.85;;;0.52;;
28170;SDS011;15458;53.346;-1.688;2022-10-16T06:14:55;4.13;;;0.60;;
28170;SDS011;15458;53.346;-1.688;2022-10-16T06:17:20;6.65;;;0.85;;
28170;SDS011;15458;53.346;-1.688;2022-10-16T06:19:46;1.17;;;0.60;;
28170;SDS011;15458;53.346;-1.688;2022-10-16T06:22:12;2.35;;;0.50;;
28170;SDS011;15458;53.346;-1.688;2022-10-16T06:24:37;3.38;;;0.60;;
28170;SDS011;15458;53.346;-1.688;2022-10-16T06:27:04;1.27;;;0.50;;
28170;SDS011;15458;53.346;-1.688;2022-10-16T06:29:31;2.67;;;0.90;;
28170;SDS011;15458;53.346;-1.688;2022-10-16T06:31:56;6.35;;;0.90;;
28170;SDS011;15458;53.346;-1.688;2022-10-16T06:34:22;3.85;;;0.50;;
28170;SDS011;15458;53.346;-1.688;2022-10-16T06:36:48;4.70;;;0.70;;
28170;SDS011;15458;53.346;-1.688;2022-10-16T06:39:13;4.53;;;0.60;;
28170;SDS011;15458;53.346;-1.688;2022-10-16T06:41:39;3.13;;;1.00;;
28170;SDS011;15458;53.346;-1.688;2022-10-16T06:44:05;5.97;;;0.70;;
28170;SDS011;15458;53.346;-1.688;2022-10-16T06:46:32;3.33;;;0.80;;
28170;SDS011;15458;53.346;-1.688;2022-10-16T06:48:58;9.02;;;1.10;;
28170;SDS011;15458;53.346;-1.688;2022-10-16T06:51:24;4.78;;;0.80;;
28170;SDS011;15458;53.346;-1.688;2022-10-16T06:53:51;7.68;;;1.40;;
28170;SDS011;15458;53.346;-1.688;2022-10-16T06:56:22;5.13;;;1.45;;
28170;SDS011;15458;53.346;-1.688;2022-10-16T06:58:57;3.72;;;0.88;;
28170;SDS011;15458;53.346;-1.688;2022-10-16T07:01:24;2.17;;;0.68;;
28170;SDS011;15458;53.346;-1.688;2022-10-16T07:03:53;5.38;;;1.45;;
28170;SDS011;15458;53.346;-1.688;2022-10-16T07:06:20;5.82;;;1.05;;
28170;SDS011;15458;53.346;-1.688;2022-10-16T07:08:47;5.18;;;1.83;;
28170;SDS011;15458;53.346;-1.688;2022-10-16T07:13:48;5.22;;;0.93;;
28170;SDS011;15458;53.346;-1.688;2022-10-16T07:16:16;4.88;;;1.15;;
28170;SDS011;15458;53.346;-1.688;2022-10-16T07:18:43;5.38;;;1.40;;
28170;SDS011;15458;53.346;-1.688;2022-10-16T07:21:12;4.78;;;0.70;;
28170;SDS011;15458;53.346;-1.688;2022-10-16T07:23:39;6.30;;;0.70;;
28170;SDS011;15458;53.346;-1.688;2022-10-16T07:26:07;7.07;;;0.77;;
28170;SDS011;15458;53.346;-1.688;2022-10-16T07:28:33;3.03;;;0.60;;
28170;SDS011;15458;53.346;-1.688;2022-10-16T07:31:00;5.45;;;0.65;;
28170;SDS011;15458;53.346;-1.688;2022-10-16T07:33:30;8.48;;;0.90;;
28170;SDS011;15458;53.346;-1.688;2022-10-16T07:35:57;4.40;;;0.80;;
28170;SDS011;15458;53.346;-1.688;2022-10-16T07:38:22;4.82;;;0.70;;
28170;SDS011;15458;53.346;-1.688;2022-10-16T07:40:55;5.22;;;1.27;;
28170;SDS011;15458;53.346;-1.688;2022-10-16T07:43:21;5.15;;;1.48;;
28170;SDS011;15458;53.346;-1.688;2022-10-16T07:45:48;5.05;;;0.60;;
28170;SDS011;15458;53.346;-1.688;2022-10-16T07:48:15;9.10;;;1.20;;
28170;SDS011;15458;53.346;-1.688;2022-10-16T07:50:41;6.53;;;0.70;;
28170;SDS011;15458;53.346;-1.688;2022-10-16T07:53:07;5.72;;;0.77;;
28170;SDS011;15458;53.346;-1.688;2022-10-16T07:55:33;3.70;;;0.90;;
28170;SDS011;15458;53.346;-1.688;2022-10-16T07:57:58;3.17;;;0.68;;
28170;SDS011;15458;53.346;-1.688;2022-10-16T08:00:27;6.20;;;0.90;;
28170;SDS011;15458;53.346;-1.688;2022-10-16T08:02:52;4.13;;;1.00;;
28170;SDS011;15458;53.346;-1.688;2022-10-16T08:05:18;8.02;;;1.27;;
28170;SDS011;15458;53.346;-1.688;2022-10-16T08:07:48;4.72;;;0.88;;
28170;SDS011;15458;53.346;-1.688;2022-10-16T08:10:18;8.93;;;1.25;;
28170;SDS011;15458;53.346;-1.688;2022-10-16T08:12:46;5.55;;;0.90;;
28170;SDS011;15458;53.346;-1.688;2022-10-16T08:15:12;4.72;;;0.93;;
28170;SDS011;15458;53.346;-1.688;2022-10-16T08:17:41;5.50;;;1.00;;
28170;SDS011;15458;53.346;-1.688;2022-10-16T08:20:10;4.88;;;1.00;;
28170;SDS011;15458;53.346;-1.688;2022-10-16T08:22:36;9.05;;;1.17;;
28170;SDS011;15458;53.346;-1.688;2022-10-16T08:25:02;8.55;;;1.30;;
28170;SDS011;15458;53.346;-1.688;2022-10-16T08:27:34;4.00;;;0.77;;
28170;SDS011;15458;53.346;-1.688;2022-10-16T08:29:59;4.50;;;0.95;;
28170;SDS011;15458;53.346;-1.688;2022-10-16T08:32:25;6.38;;;0.70;;
28170;SDS011;15458;53.346;-1.688;2022-10-16T08:34:51;6.75;;;1.92;;
28170;SDS011;15458;53.346;-1.688;2022-10-16T08:37:16;3.92;;;0.70;;
28170;SDS011;15458;53.346;-1.688;2022-10-16T08:39:42;6.57;;;0.80;;
28170;SDS011;15458;53.346;-1.688;2022-10-16T08:50:21;4.63;;;0.85;;
28170;SDS011;15458;53.346;-1.688;2022-10-16T08:52:50;5.55;;;1.58;;
28170;SDS011;15458;53.346;-1.688;2022-10-16T08:55:37;7.15;;;0.98;;
28170;SDS011;15458;53.346;-1.688;2022-10-16T08:58:18;11.93;;;1.10;;
28170;SDS011;15458;53.346;-1.688;2022-10-16T09:00:56;6.65;;;1.40;;
28170;SDS011;15458;53.346;-1.688;2022-10-16T09:12:21;5.28;;;0.98;;
28170;SDS011;15458;53.346;-1.688;2022-10-16T09:18:12;2.28;;;0.65;;
28170;SDS011;15458;53.346;-1.688;2022-10-16T09:21:14;2.47;;;0.60;;
28170;SDS011;15458;53.346;-1.688;2022-10-16T09:27:01;7.05;;;0.75;;
28170;SDS011;15458;53.346;-1.688;2022-10-16T09:29:41;5.22;;;0.93;;
28170;SDS011;15458;53.346;-1.688;2022-10-16T09:32:10;3.65;;;0.57;;
28170;SDS011;15458;53.346;-1.688;2022-10-16T09:35:01;8.27;;;0.70;;
28170;SDS011;15458;53.346;-1.688;2022-10-16T09:37:40;3.65;;;0.70;;
28170;SDS011;15458;53.346;-1.688;2022-10-16T09:40:24;7.13;;;1.25;;
28170;SDS011;15458;53.346;-1.688;2022-10-16T09:43:26;4.82;;;0.90;;
28170;SDS011;15458;53.346;-1.688;2022-10-16T09:46:01;5.97;;;1.02;;
28170;SDS011;15458;53.346;-1.688;2022-10-16T09:48:39;8.00;;;1.15;;
28170;SDS011;15458;53.346;-1.688;2022-10-16T09:51:24;2.35;;;0.60;;
28170;SDS011;15458;53.346;-1.688;2022-10-16T09:54:13;3.38;;;0.70;;
28170;SDS011;15458;53.346;-1.688;2022-10-16T09:57:06;8.07;;;0.90;;
28170;SDS011;15458;53.346;-1.688;2022-10-16T09:59:53;2.88;;;0.70;;
28170;SDS011;15458;53.346;-1.688;2022-10-16T10:02:30;2.33;;;0.70;;
28170;SDS011;15458;53.346;-1.688;2022-10-16T10:04:59;4.45;;;0.82;;
28170;SDS011;15458;53.346;-1.688;2022-10-16T10:07:27;4.07;;;0.90;;
28170;SDS011;15458;53.346;-1.688;2022-10-16T10:09:58;5.43;;;1.00;;
28170;SDS011;15458;53.346;-1.688;2022-10-16T10:12:25;2.47;;;0.65;;
28170;SDS011;15458;53.346;-1.688;2022-10-16T10:15:21;5.72;;;0.68;;
28170;SDS011;15458;53.346;-1.688;2022-10-16T10:17:49;3.10;;;0.95;;
28170;SDS011;15458;53.346;-1.688;2022-10-16T10:20:30;5.88;;;0.60;;
28170;SDS011;15458;53.346;-1.688;2022-10-16T10:23:22;3.95;;;0.85;;
28170;SDS011;15458;53.346;-1.688;2022-10-16T10:34:38;2.92;;;0.60;;
28170;SDS011;15458;53.346;-1.688;2022-10-16T10:37:13;3.35;;;1.45;;
28170;SDS011;15458;53.346;-1.688;2022-10-16T10:45:59;3.10;;;0.60;;
28170;SDS011;15458;53.346;-1.688;2022-10-16T10:48:31;3.63;;;0.60;;
28170;SDS011;15458;53.346;-1.688;2022-10-16T10:51:04;6.30;;;0.93;;
28170;SDS011;15458;53.346;-1.688;2022-10-16T10:59:43;1.83;;;0.50;;
28170;SDS011;15458;53.346;-1.688;2022-10-16T11:02:18;1.02;;;0.50;;
28170;SDS011;15458;53.346;-1.688;2022-10-16T11:07:57;1.95;;;0.82;;
28170;SDS011;15458;53.346;-1.688;2022-10-16T11:16:39;5.75;;;1.00;;
28170;SDS011;15458;53.346;-1.688;2022-10-16T11:22:18;3.17;;;0.63;;
28170;SDS011;15458;53.346;-1.688;2022-10-16T11:24:51;3.20;;;0.60;;
28170;SDS011;15458;53.346;-1.688;2022-10-16T11:27:40;5.25;;;0.60;;
28170;SDS011;15458;53.346;-1.688;2022-10-16T11:30:20;7.53;;;0.80;;
28170;SDS011;15458;53.346;-1.688;2022-10-16T11:41:15;2.00;;;0.30;;
28170;SDS011;15458;53.346;-1.688;2022-10-16T11:46:46;3.75;;;0.40;;
28170;SDS011;15458;53.346;-1.688;2022-10-16T11:49:57;4.13;;;0.60;;
28170;SDS011;15458;53.346;-1.688;2022-10-16T11:55:23;4.68;;;0.60;;
28170;SDS011;15458;53.346;-1.688;2022-10-16T11:58:12;2.30;;;0.32;;
28170;SDS011;15458;53.346;-1.688;2022-10-16T12:03:42;2.10;;;1.13;;
28170;SDS011;15458;53.346;-1.688;2022-10-16T12:09:24;2.08;;;0.60;;
28170;SDS011;15458;53.346;-1.688;2022-10-16T12:11:59;1.75;;;0.40;;
28170;SDS011;15458;53.346;-1.688;2022-10-16T12:14:36;3.75;;;0.40;;
28170;SDS011;15458;53.346;-1.688;2022-10-16T12:20:32;1.35;;;0.40;;
28170;SDS011;15458;53.346;-1.688;2022-10-16T12:22:57;2.45;;;0.52;;
28170;SDS011;15458;53.346;-1.688;2022-10-16T12:25:39;1.98;;;0.52;;
28170;SDS011;15458;53.346;-1.688;2022-10-16T12:28:21;2.75;;;0.60;;
28170;SDS011;15458;53.346;-1.688;2022-10-16T12:30:54;3.38;;;0.70;;
28170;SDS011;15458;53.346;-1.688;2022-10-16T12:33:26;4.47;;;0.75;;
28170;SDS011;15458;53.346;-1.688;2022-10-16T12:35:58;4.15;;;0.50;;
28170;SDS011;15458;53.346;-1.688;2022-10-16T12:38:28;3.58;;;0.55;;
28170;SDS011;15458;53.346;-1.688;2022-10-16T12:41:34;3.22;;;0.95;;
28170;SDS011;15458;53.346;-1.688;2022-10-16T12:44:04;2.08;;;0.60;;
28170;SDS011;15458;53.346;-1.688;2022-10-16T12:49:48;2.17;;;0.50;;
28170;SDS011;15458;53.346;-1.688;2022-10-16T12:52:02;5.70;;;0.75;;
28170;SDS011;15458;53.346;-1.688;2022-10-16T12:54:29;6.20;;;0.60;;
28170;SDS011;15458;53.346;-1.688;2022-10-16T13:10:58;4.00;;;0.80;;
28170;SDS011;15458;53.346;-1.688;2022-10-16T13:25:14;4.55;;;0.70;;
28170;SDS011;15458;53.346;-1.688;2022-10-16T13:27:54;1.60;;;0.43;;
28170;SDS011;15458;53.346;-1.688;2022-10-16T13:30:32;2.13;;;0.90;;
28170;SDS011;15458;53.346;-1.688;2022-10-16T13:33:16;3.85;;;0.82;;
28170;SDS011;15458;53.346;-1.688;2022-10-16T13:35:53;3.08;;;0.55;;
28170;SDS011;15458;53.346;-1.688;2022-10-16T13:38:21;3.60;;;0.90;;
28170;SDS011;15458;53.346;-1.688;2022-10-16T13:43:36;5.65;;;0.80;;
28170;SDS011;15458;53.346;-1.688;2022-10-16T13:48:55;6.15;;;0.70;;
28170;SDS011;15458;53.346;-1.688;2022-10-16T13:51:22;5.03;;;0.70;;
28170;SDS011;15458;53.346;-1.688;2022-10-16T13:53:48;4.28;;;0.85;;
28170;SDS011;15458;53.346;-1.688;2022-10-16T13:56:18;8.70;;;1.08;;
28170;SDS011;15458;53.346;-1.688;2022-10-16T13:58:46;2.30;;;0.60;;
28170;SDS011;15458;53.346;-1.688;2022-10-16T14:01:23;5.70;;;1.10;;
28170;SDS011;15458;53.346;-1.688;2022-10-16T14:03:53;3.25;;;0.77;;
28170;SDS011;15458;53.346;-1.688;2022-10-16T14:06:25;5.60;;;0.80;;
28170;SDS011;15458;53.346;-1.688;2022-10-16T14:08:58;2.25;;;0.75;;
28170;SDS011;15458;53.346;-1.688;2022-10-16T14:11:29;2.85;;;0.70;;
28170;SDS011;15458;53.346;-1.688;2022-10-16T14:13:55;2.97;;;0.80;;
28170;SDS011;15458;53.346;-1.688;2022-10-16T14:16:25;5.50;;;0.57;;
28170;SDS011;15458;53.346;-1.688;2022-10-16T14:19:01;3.55;;;0.65;;
28170;SDS011;15458;53.346;-1.688;2022-10-16T14:21:31;2.08;;;0.93;;
28170;SDS011;15458;53.346;-1.688;2022-10-16T14:23:58;0.98;;;0.50;;
28170;SDS011;15458;53.346;-1.688;2022-10-16T14:26:27;4.13;;;0.80;;
28170;SDS011;15458;53.346;-1.688;2022-10-16T14:32:00;3.95;;;0.80;;
28170;SDS011;15458;53.346;-1.688;2022-10-16T14:37:21;5.15;;;0.90;;
28170;SDS011;15458;53.346;-1.688;2022-10-16T14:39:51;2.17;;;0.75;;
28170;SDS011;15458;53.346;-1.688;2022-10-16T14:42:21;5.13;;;1.23;;
28170;SDS011;15458;53.346;-1.688;2022-10-16T14:44:56;1.27;;;0.50;;
28170;SDS011;15458;53.346;-1.688;2022-10-16T14:47:23;3.53;;;0.82;;
28170;SDS011;15458;53.346;-1.688;2022-10-16T14:49:51;3.58;;;0.95;;
28170;SDS011;15458;53.346;-1.688;2022-10-16T14:52:24;4.05;;;0.95;;
28170;SDS011;15458;53.346;-1.688;2022-10-16T14:54:50;3.35;;;0.80;;
28170;SDS011;15458;53.346;-1.688;2022-10-16T14:57:20;3.88;;;1.15;;
28170;SDS011;15458;53.346;-1.688;2022-10-16T14:59:48;3.83;;;0.95;;
28170;SDS011;15458;53.346;-1.688;2022-10-16T15:04:43;2.00;;;0.60;;
28170;SDS011;15458;53.346;-1.688;2022-10-16T15:07:09;4.25;;;0.55;;
28170;SDS011;15458;53.346;-1.688;2022-10-16T15:09:35;2.90;;;0.93;;
28170;SDS011;15458;53.346;-1.688;2022-10-16T15:12:02;4.22;;;1.00;;
28170;SDS011;15458;53.346;-1.688;2022-10-16T15:14:28;8.60;;;0.80;;
28170;SDS011;15458;53.346;-1.688;2022-10-16T15:16:54;2.38;;;0.60;;
28170;SDS011;15458;53.346;-1.688;2022-10-16T15:19:22;2.05;;;0.65;;
28170;SDS011;15458;53.346;-1.688;2022-10-16T15:21:51;2.13;;;0.80;;
28170;SDS011;15458;53.346;-1.688;2022-10-16T15:24:23;2.50;;;0.70;;
28170;SDS011;15458;53.346;-1.688;2022-10-16T15:26:49;6.78;;;0.70;;
28170;SDS011;15458;53.346;-1.688;2022-10-16T15:29:15;2.97;;;0.68;;
28170;SDS011;15458;53.346;-1.688;2022-10-16T15:31:43;2.83;;;1.05;;
28170;SDS011;15458;53.346;-1.688;2022-10-16T15:34:15;4.18;;;1.63;;
28170;SDS011;15458;53.346;-1.688;2022-10-16T15:36:44;3.45;;;1.55;;
28170;SDS011;15458;53.346;-1.688;2022-10-16T15:39:14;5.78;;;1.85;;
28170;SDS011;15458;53.346;-1.688;2022-10-16T15:41:45;8.68;;;2.92;;
28170;SDS011;15458;53.346;-1.688;2022-10-16T15:44:19;6.82;;;3.15;;
28170;SDS011;15458;53.346;-1.688;2022-10-16T15:46:47;7.95;;;3.13;;
28170;SDS011;15458;53.346;-1.688;2022-10-16T15:49:13;7.20;;;3.20;;
28170;SDS011;15458;53.346;-1.688;2022-10-16T15:51:40;11.45;;;5.88;;
28170;SDS011;15458;53.346;-1.688;2022-10-16T15:54:09;7.07;;;3.38;;
28170;SDS011;15458;53.346;-1.688;2022-10-16T15:56:35;5.53;;;2.25;;
28170;SDS011;15458;53.346;-1.688;2022-10-16T15:59:02;5.72;;;1.65;;
28170;SDS011;15458;53.346;-1.688;2022-10-16T16:01:31;7.20;;;1.95;;
28170;SDS011;15458;53.346;-1.688;2022-10-16T16:04:08;13.00;;;1.65;;
28170;SDS011;15458;53.346;-1.688;2022-10-16T16:06:37;4.93;;;1.83;;
28170;SDS011;15458;53.346;-1.688;2022-10-16T16:09:04;5.47;;;1.10;;
28170;SDS011;15458;53.346;-1.688;2022-10-16T16:11:33;6.95;;;1.00;;
28170;SDS011;15458;53.346;-1.688;2022-10-16T16:14:06;3.28;;;1.00;;
28170;SDS011;15458;53.346;-1.688;2022-10-16T16:16:37;5.53;;;1.33;;
28170;SDS011;15458;53.346;-1.688;2022-10-16T16:19:06;7.15;;;2.10;;
28170;SDS011;15458;53.346;-1.688;2022-10-16T16:21:33;5.43;;;1.00;;
28170;SDS011;15458;53.346;-1.688;2022-10-16T16:23:59;5.90;;;1.27;;
28170;SDS011;15458;53.346;-1.688;2022-10-16T16:26:28;7.07;;;1.08;;
28170;SDS011;15458;53.346;-1.688;2022-10-16T16:28:59;2.70;;;0.90;;
28170;SDS011;15458;53.346;-1.688;2022-10-16T16:31:26;2.28;;;0.95;;
28170;SDS011;15458;53.346;-1.688;2022-10-16T16:33:53;4.82;;;1.10;;
28170;SDS011;15458;53.346;-1.688;2022-10-16T16:36:19;2.13;;;0.93;;
28170;SDS011;15458;53.346;-1.688;2022-10-16T16:38:45;4.85;;;0.82;;
28170;SDS011;15458;53.346;-1.688;2022-10-16T16:41:12;5.78;;;0.98;;
28170;SDS011;15458;53.346;-1.688;2022-10-16T16:43:38;7.18;;;1.20;;
28170;SDS011;15458;53.346;-1.688;2022-10-16T16:46:06;3.83;;;1.00;;
28170;SDS011;15458;53.346;-1.688;2022-10-16T16:48:32;7.35;;;1.05;;
28170;SDS011;15458;53.346;-1.688;2022-10-16T16:51:05;3.35;;;0.88;;
28170;SDS011;15458;53.346;-1.688;2022-10-16T16:53:33;3.17;;;0.82;;
28170;SDS011;15458;53.346;-1.688;2022-10-16T16:56:02;5.75;;;1.35;;
28170;SDS011;15458;53.346;-1.688;2022-10-16T16:58:31;2.22;;;0.70;;
28170;SDS011;15458;53.346;-1.688;2022-10-16T17:00:57;4.68;;;1.30;;
28170;SDS011;15458;53.346;-1.688;2022-10-16T17:03:27;2.92;;;0.70;;
28170;SDS011;15458;53.346;-1.688;2022-10-16T17:06:00;3.40;;;0.90;;
28170;SDS011;15458;53.346;-1.688;2022-10-16T17:08:28;2.85;;;0.75;;
28170;SDS011;15458;53.346;-1.688;2022-10-16T17:10:55;6.13;;;1.08;;